createdAt,value
2023-02-03T00:01:44.772Z,57.62
2023-02-03T00:04:11.189Z,57.86
2023-02-03T00:06:37.615Z,58.17
2023-02-03T00:09:04.176Z,57.79
2023-02-03T00:11:30.667Z,58.36
2023-02-03T00:14:00.528Z,57.72
2023-02-03T00:16:27.131Z,58.47
2023-02-03T00:18:53.707Z,58.65
2023-02-03T00:21:20.156Z,58.25
2023-02-03T00:23:46.668Z,58.52
2023-02-03T00:26:13.110Z,58.19
2023-02-03T00:28:39.657Z,57.85
2023-02-03T00:31:08.930Z,57.89
2023-02-03T00:33:35.359Z,57.62
2023-02-03T00:36:01.791Z,57.65
2023-02-03T00:38:28.208Z,57.44
2023-02-03T00:40:54.638Z,57.77
2023-02-03T00:43:21.068Z,57.04
2023-02-03T00:45:47.583Z,57.67
2023-02-03T00:48:14.284Z,57.51
2023-02-03T00:50:40.781Z,57.82
2023-02-03T00:53:07.319Z,57.80
2023-02-03T00:55:33.773Z,58.07
2023-02-03T00:58:00.288Z,58.43
2023-02-03T01:00:27.018Z,58.20
2023-02-03T01:02:53.712Z,58.17
2023-02-03T01:05:20.189Z,58.48
2023-02-03T01:07:46.628Z,57.99
2023-02-03T01:10:13.071Z,57.89
2023-02-03T01:12:39.490Z,57.15
2023-02-03T01:15:05.950Z,57.20
2023-02-03T01:17:32.446Z,56.76
2023-02-03T01:19:58.994Z,57.54
2023-02-03T01:22:25.505Z,57.62
2023-02-03T01:24:52.969Z,57.30
2023-02-03T01:27:19.434Z,57.40
2023-02-03T01:29:45.901Z,57.62
2023-02-03T01:32:12.388Z,57.43
2023-02-03T01:34:38.851Z,58.18
2023-02-03T01:37:09.279Z,58.54
2023-02-03T01:39:35.709Z,58.73
2023-02-03T01:44:42.509Z,59.43
2023-02-03T01:47:09.355Z,59.23
2023-02-03T01:49:35.858Z,58.52
2023-02-03T01:52:02.316Z,57.99
2023-02-03T01:54:28.754Z,58.71
2023-02-03T01:56:55.178Z,59.00
2023-02-03T01:59:21.657Z,59.25
2023-02-03T02:01:57.718Z,59.15
2023-02-03T02:04:24.177Z,60.35
2023-02-03T02:06:50.638Z,60.20
2023-02-03T02:09:17.095Z,59.79
2023-02-03T02:11:43.526Z,59.12
2023-02-03T02:14:09.926Z,59.60
2023-02-03T02:16:36.352Z,59.63
2023-02-03T02:19:02.828Z,59.41
2023-02-03T02:21:29.261Z,59.13
2023-02-03T02:23:55.653Z,59.28
2023-02-03T02:26:22.083Z,59.10
2023-02-03T02:28:48.551Z,58.39
2023-02-03T02:31:15.049Z,58.41
2023-02-03T02:33:41.514Z,58.58
2023-02-03T02:36:08.050Z,58.65
2023-02-03T02:38:34.509Z,58.50
2023-02-03T02:41:00.913Z,59.00
2023-02-03T02:43:28.266Z,59.16
2023-02-03T02:45:54.860Z,58.59
2023-02-03T02:48:21.340Z,58.78
2023-02-03T02:50:47.805Z,58.55
2023-02-03T02:53:14.431Z,58.88
2023-02-03T02:55:40.831Z,59.59
2023-02-03T02:58:07.311Z,59.03
2023-02-03T03:00:33.893Z,59.20
2023-02-03T03:03:00.377Z,58.32
2023-02-03T03:05:26.859Z,58.84
2023-02-03T03:07:55.581Z,59.49
2023-02-03T03:10:22.019Z,58.84
2023-02-03T03:12:48.426Z,58.75
2023-02-03T03:15:14.861Z,58.86
2023-02-03T03:17:41.259Z,59.62
2023-02-03T03:20:07.713Z,59.52
2023-02-03T03:22:34.180Z,59.82
2023-02-03T03:25:00.620Z,59.24
2023-02-03T03:27:27.087Z,59.64
2023-02-03T03:29:53.594Z,59.84
2023-02-03T03:32:20.072Z,60.24
2023-02-03T03:34:46.579Z,60.54
2023-02-03T03:37:13.040Z,60.49
2023-02-03T03:39:39.474Z,60.02
2023-02-03T03:42:05.931Z,60.02
2023-02-03T03:44:32.367Z,58.60
2023-02-03T03:46:58.811Z,57.99
2023-02-03T03:49:25.253Z,57.50
2023-02-03T03:51:51.762Z,58.47
2023-02-03T03:54:18.210Z,58.33
2023-02-03T03:56:44.647Z,58.70
2023-02-03T03:59:12.123Z,58.86
2023-02-03T04:01:38.721Z,59.01
2023-02-03T04:04:05.262Z,58.64
2023-02-03T04:06:31.740Z,58.65
2023-02-03T04:09:01.257Z,57.98
2023-02-03T04:11:33.161Z,57.68
2023-02-03T04:13:59.652Z,58.10
2023-02-03T04:16:28.800Z,58.09
2023-02-03T04:18:55.339Z,57.67
2023-02-03T04:21:22.032Z,58.26
2023-02-03T04:23:48.444Z,58.50
2023-02-03T04:26:14.895Z,58.09
2023-02-03T04:28:41.328Z,58.20
2023-02-03T04:31:07.839Z,58.19
2023-02-03T04:33:34.308Z,58.69
2023-02-03T04:36:00.774Z,58.60
2023-02-03T04:38:27.231Z,58.69
2023-02-03T04:40:54.700Z,58.62
2023-02-03T04:43:21.165Z,58.61
2023-02-03T04:45:47.694Z,58.50
2023-02-03T04:48:15.136Z,58.55
2023-02-03T04:50:48.846Z,58.78
2023-02-03T04:53:16.103Z,59.12
2023-02-03T04:55:42.688Z,58.59
2023-02-03T04:58:12.263Z,58.79
2023-02-03T05:00:38.824Z,58.42
2023-02-03T05:03:11.513Z,58.69
2023-02-03T05:05:40.629Z,58.95
2023-02-03T05:08:07.093Z,59.47
2023-02-03T05:10:33.521Z,59.53
2023-02-03T05:12:59.914Z,58.50
2023-02-03T05:15:26.278Z,57.74
2023-02-03T05:17:52.740Z,57.30
2023-02-03T05:20:19.235Z,56.87
2023-02-03T05:22:45.753Z,56.46
2023-02-03T05:25:12.281Z,57.13
2023-02-03T05:27:38.766Z,58.10
2023-02-03T05:30:05.152Z,58.53
2023-02-03T05:32:31.624Z,57.91
2023-02-03T05:34:58.135Z,57.36
2023-02-03T05:37:24.494Z,56.88
2023-02-03T05:39:51.094Z,56.85
2023-02-03T05:42:17.596Z,56.09
2023-02-03T05:44:44.005Z,54.70
2023-02-03T05:47:10.550Z,55.67
2023-02-03T05:49:36.999Z,57.17
2023-02-03T05:52:03.461Z,56.90
2023-02-03T05:54:29.935Z,57.28
2023-02-03T05:56:56.386Z,57.03
2023-02-03T05:59:23.043Z,57.68
2023-02-03T06:01:49.543Z,58.11
2023-02-03T06:04:16.004Z,58.57
2023-02-03T06:06:42.447Z,58.05
2023-02-03T06:09:08.919Z,58.16
2023-02-03T06:11:35.337Z,57.78
2023-02-03T06:14:01.772Z,57.29
2023-02-03T06:16:28.266Z,58.25
2023-02-03T06:18:54.804Z,58.26
2023-02-03T06:21:21.303Z,58.26
2023-02-03T06:23:47.732Z,57.84
2023-02-03T06:26:14.423Z,57.68
2023-02-03T06:31:22.328Z,57.31
2023-02-03T06:33:48.848Z,57.16
2023-02-03T06:36:15.245Z,56.75
2023-02-03T06:38:41.641Z,56.84
2023-02-03T06:41:08.061Z,57.13
2023-02-03T06:43:34.495Z,57.53
2023-02-03T06:46:01.052Z,57.55
2023-02-03T06:48:27.488Z,57.66
2023-02-03T06:50:53.921Z,57.73
2023-02-03T06:53:20.308Z,57.34
2023-02-03T06:55:46.681Z,56.58
2023-02-03T06:58:13.166Z,57.26
2023-02-03T07:00:39.631Z,56.86
2023-02-03T07:03:06.117Z,56.76
2023-02-03T07:05:32.760Z,56.67
2023-02-03T07:07:59.910Z,56.70
2023-02-03T07:10:26.684Z,56.52
2023-02-03T07:12:53.307Z,56.53
2023-02-03T07:15:19.740Z,56.60
2023-02-03T07:17:47.869Z,57.04
2023-02-03T07:20:23.612Z,56.95
2023-02-03T07:22:50.356Z,57.26
2023-02-03T07:25:22.912Z,58.21
2023-02-03T07:27:49.320Z,58.91
2023-02-03T07:30:15.892Z,59.39
2023-02-03T07:32:52.553Z,58.31
2023-02-03T07:38:11.232Z,56.78
2023-02-03T07:40:37.704Z,56.08
2023-02-03T07:43:05.146Z,56.38
2023-02-03T07:45:31.640Z,56.26
2023-02-03T07:47:58.069Z,56.51
2023-02-03T07:50:24.618Z,55.69
2023-02-03T07:52:51.113Z,55.47
2023-02-03T07:55:17.573Z,55.13
2023-02-03T07:57:47.012Z,55.67
2023-02-03T08:00:13.461Z,54.88
2023-02-03T08:02:39.887Z,55.99
2023-02-03T08:05:06.405Z,55.81
2023-02-03T08:07:32.917Z,54.91
2023-02-03T08:10:00.278Z,56.25
2023-02-03T08:12:26.719Z,56.98
2023-02-03T08:14:53.199Z,57.44
2023-02-03T08:17:19.701Z,56.93
2023-02-03T08:19:46.165Z,57.24
2023-02-03T08:22:12.793Z,56.59
2023-02-03T08:24:39.291Z,57.18
2023-02-03T08:27:05.710Z,56.77
2023-02-03T08:29:32.198Z,57.46
2023-02-03T08:32:00.084Z,56.88
2023-02-03T08:34:26.708Z,56.02
2023-02-03T08:39:33.555Z,57.20
2023-02-03T08:42:00.769Z,56.73
2023-02-03T08:44:27.275Z,56.43
2023-02-03T08:46:53.738Z,56.68
2023-02-03T08:49:20.338Z,55.58
2023-02-03T08:51:47.369Z,56.74
2023-02-03T08:54:13.814Z,56.77
2023-02-03T08:56:41.323Z,56.67
2023-02-03T08:59:07.818Z,57.01
2023-02-03T09:01:41.491Z,56.67
2023-02-03T09:04:25.271Z,56.83
2023-02-03T09:06:58.861Z,57.07
2023-02-03T09:09:25.328Z,57.04
2023-02-03T09:11:52.284Z,57.37
2023-02-03T09:14:18.719Z,57.66
2023-02-03T09:16:47.637Z,57.75
2023-02-03T09:19:14.088Z,57.06
2023-02-03T09:21:44.253Z,56.54
2023-02-03T09:24:12.231Z,55.80
2023-02-03T09:26:38.936Z,55.82
2023-02-03T09:29:05.310Z,56.40
2023-02-03T09:31:31.745Z,55.79
2023-02-03T09:33:58.186Z,56.54
2023-02-03T09:36:24.575Z,56.41
2023-02-03T09:38:51.030Z,56.82
2023-02-03T09:41:25.019Z,56.62
2023-02-03T09:43:56.847Z,56.28
2023-02-03T09:46:24.648Z,56.55
2023-02-03T09:48:51.125Z,56.06
2023-02-03T09:51:17.556Z,56.11
2023-02-03T09:53:43.970Z,56.52
2023-02-03T09:56:10.367Z,55.91
2023-02-03T09:58:36.848Z,56.16
2023-02-03T10:01:03.286Z,56.18
2023-02-03T10:03:29.715Z,55.54
2023-02-03T10:05:56.173Z,56.16
2023-02-03T10:08:23.643Z,55.38
2023-02-03T10:10:50.062Z,55.00
2023-02-03T10:13:16.501Z,54.65
2023-02-03T10:15:43.006Z,53.51
2023-02-03T10:18:12.948Z,53.56
2023-02-03T10:20:39.398Z,53.64
2023-02-03T10:23:05.797Z,53.36
2023-02-03T10:25:32.134Z,53.76
2023-02-03T10:27:59.009Z,53.44
2023-02-03T10:30:25.594Z,53.07
2023-02-03T10:32:52.066Z,53.00
2023-02-03T10:35:18.485Z,52.80
2023-02-03T10:37:52.099Z,52.19
2023-02-03T10:40:18.537Z,51.98
2023-02-03T10:42:44.956Z,51.69
2023-02-03T10:45:31.910Z,51.21
2023-02-03T10:47:58.371Z,52.64
2023-02-03T10:50:24.809Z,52.70
2023-02-03T10:52:59.178Z,52.22
2023-02-03T10:55:25.759Z,51.53
2023-02-03T10:57:52.090Z,50.27
2023-02-03T11:00:22.326Z,50.09
2023-02-03T11:02:49.635Z,50.99
2023-02-03T11:05:16.099Z,50.39
2023-02-03T11:07:42.727Z,50.81
2023-02-03T11:10:13.702Z,50.69
2023-02-03T11:12:43.114Z,51.12
2023-02-03T11:15:10.598Z,51.54
2023-02-03T11:17:37.045Z,51.44
2023-02-03T11:20:03.461Z,51.59
2023-02-03T11:22:36.189Z,51.69
2023-02-03T11:25:03.545Z,51.70
2023-02-03T11:27:30.405Z,51.94
2023-02-03T11:29:58.618Z,52.79
2023-02-03T11:32:32.499Z,52.13
2023-02-03T11:34:58.979Z,52.04
2023-02-03T11:37:28.084Z,52.49
2023-02-03T11:39:54.493Z,51.65
2023-02-03T11:42:20.930Z,51.06
2023-02-03T11:44:47.406Z,51.72
2023-02-03T11:47:14.841Z,51.33
2023-02-03T11:49:46.577Z,51.21
2023-02-03T11:52:15.181Z,52.00
2023-02-03T11:54:41.655Z,51.54
2023-02-03T11:57:08.511Z,51.58
2023-02-03T11:59:34.884Z,50.55
2023-02-03T12:02:01.352Z,51.09
2023-02-03T12:04:31.565Z,50.77
2023-02-03T12:06:58.023Z,50.61
2023-02-03T12:09:24.402Z,50.10
2023-02-03T12:11:50.803Z,49.92
2023-02-03T12:14:17.181Z,50.09
2023-02-03T12:16:43.690Z,49.82
2023-02-03T12:19:10.211Z,50.62
2023-02-03T12:21:36.659Z,50.58
2023-02-03T12:24:03.054Z,49.92
2023-02-03T12:26:29.454Z,49.15
2023-02-03T12:28:55.840Z,49.73
2023-02-03T12:31:22.335Z,48.98
2023-02-03T12:33:48.860Z,48.39
2023-02-03T12:36:15.314Z,49.02
2023-02-03T12:38:41.708Z,47.20
2023-02-03T12:41:08.142Z,47.97
2023-02-03T12:43:34.614Z,48.89
2023-02-03T12:46:08.788Z,48.25
2023-02-03T12:48:35.277Z,48.38
2023-02-03T12:51:01.772Z,48.72
2023-02-03T12:53:29.324Z,49.07
2023-02-03T12:55:56.270Z,48.34
2023-02-03T12:58:23.958Z,50.17
2023-02-03T13:00:50.543Z,52.54
2023-02-03T13:05:57.330Z,55.40
2023-02-03T13:08:23.783Z,54.67
2023-02-03T13:10:50.219Z,55.40
2023-02-03T13:13:16.691Z,55.28
2023-02-03T13:15:43.050Z,54.94
2023-02-03T13:18:09.513Z,56.54
2023-02-03T13:20:36.213Z,56.71
2023-02-03T13:23:02.720Z,55.89
2023-02-03T13:25:29.244Z,55.24
2023-02-03T13:27:55.815Z,55.10
2023-02-03T13:30:25.105Z,54.36
2023-02-03T13:32:52.038Z,55.26
2023-02-03T13:35:21.701Z,56.08
2023-02-03T13:37:54.283Z,54.66
2023-02-03T13:40:20.746Z,55.08
2023-02-03T13:42:48.397Z,55.84
2023-02-03T13:45:14.813Z,55.77
2023-02-03T13:47:41.280Z,55.78
2023-02-03T13:50:12.695Z,56.81
2023-02-03T13:52:41.747Z,55.35
2023-02-03T13:55:08.533Z,56.87
2023-02-03T13:57:35.051Z,57.11
2023-02-03T14:00:01.633Z,56.66
2023-02-03T14:02:28.038Z,55.15
2023-02-03T14:04:54.699Z,56.70
2023-02-03T14:07:24.222Z,57.09
2023-02-03T14:09:50.691Z,56.69
2023-02-03T14:12:17.127Z,57.25
2023-02-03T14:14:43.625Z,55.58
2023-02-03T14:17:10.440Z,55.60
2023-02-03T14:19:37.069Z,57.00
2023-02-03T14:22:14.666Z,55.42
2023-02-03T14:24:41.157Z,55.94
2023-02-03T14:27:09.679Z,57.26
2023-02-03T14:29:36.040Z,56.47
2023-02-03T14:32:02.590Z,55.98
2023-02-03T14:34:29.061Z,55.36
2023-02-03T14:36:55.580Z,54.55
2023-02-03T14:39:22.065Z,53.99
2023-02-03T14:41:48.550Z,55.35
2023-02-03T14:44:15.026Z,55.96
2023-02-03T14:46:41.580Z,54.90
2023-02-03T14:49:08.156Z,54.55
2023-02-03T14:51:34.646Z,53.50
2023-02-03T14:54:01.151Z,55.71
2023-02-03T14:56:27.646Z,57.90
2023-02-03T14:58:54.098Z,58.94
2023-02-03T15:01:23.558Z,59.12
2023-02-03T15:03:50.032Z,57.50
2023-02-03T15:06:16.546Z,56.16
2023-02-03T15:08:43.009Z,56.64
2023-02-03T15:11:13.480Z,56.41
2023-02-03T15:13:42.035Z,55.67
2023-02-03T15:16:08.531Z,56.14
2023-02-03T15:18:35.032Z,55.89
2023-02-03T15:21:01.423Z,54.89
2023-02-03T15:23:27.827Z,53.65
2023-02-03T15:25:54.293Z,52.82
2023-02-03T15:28:20.744Z,52.76
2023-02-03T15:30:48.320Z,51.85
2023-02-03T15:33:14.859Z,51.31
2023-02-03T15:35:41.295Z,50.93
2023-02-03T15:38:07.752Z,50.57
2023-02-03T15:40:34.228Z,50.28
2023-02-03T15:43:08.594Z,50.54
2023-02-03T15:45:35.018Z,50.42
2023-02-03T15:48:01.509Z,50.25
2023-02-03T15:50:28.419Z,50.34
2023-02-03T15:52:56.140Z,49.86
2023-02-03T15:58:13.409Z,49.67
2023-02-03T16:00:42.808Z,49.73
2023-02-03T16:03:09.350Z,50.21
2023-02-03T16:05:36.036Z,51.15
2023-02-03T16:08:03.649Z,52.94
2023-02-03T16:10:30.237Z,53.28
2023-02-03T16:12:56.755Z,52.63
2023-02-03T16:15:23.205Z,52.18
2023-02-03T16:17:49.685Z,53.33
2023-02-03T16:20:16.152Z,55.29
2023-02-03T16:22:42.618Z,55.40
2023-02-03T16:25:09.075Z,56.34
2023-02-03T16:27:35.589Z,55.62
2023-02-03T16:30:02.024Z,53.63
2023-02-03T16:32:28.518Z,53.06
2023-02-03T16:34:54.936Z,53.29
2023-02-03T16:37:21.455Z,54.26
2023-02-03T16:39:47.978Z,54.70
2023-02-03T16:42:14.462Z,54.77
2023-02-03T16:44:40.953Z,55.02
2023-02-03T16:47:07.429Z,55.06
2023-02-03T16:49:33.872Z,56.05
2023-02-03T16:52:00.319Z,54.82
2023-02-03T16:54:26.732Z,55.42
2023-02-03T16:57:04.820Z,55.01
2023-02-03T16:59:32.377Z,54.58
2023-02-03T17:01:58.883Z,54.35
2023-02-03T17:04:25.378Z,51.39
2023-02-03T17:06:51.801Z,53.53
2023-02-03T17:09:18.332Z,54.45
2023-02-03T17:11:45.850Z,55.04
2023-02-03T17:14:12.350Z,54.58
2023-02-03T17:19:23.959Z,54.40
2023-02-03T17:22:00.779Z,53.96
2023-02-03T17:24:27.232Z,54.37
2023-02-03T17:26:53.728Z,54.39
2023-02-03T17:29:20.248Z,54.34
2023-02-03T17:31:46.769Z,54.70
2023-02-03T17:34:15.918Z,55.18
2023-02-03T17:36:42.404Z,55.83
2023-02-03T17:55:33.873Z,54.36
2023-02-03T17:58:00.535Z,53.96
2023-02-03T18:00:27.247Z,54.04
2023-02-03T18:02:53.801Z,54.10
2023-02-03T18:05:21.618Z,53.56
2023-02-03T18:10:22.066Z,53.58
2023-02-03T18:12:54.637Z,53.07
2023-02-03T18:15:21.094Z,53.03
2023-02-03T18:17:52.457Z,53.12
2023-02-03T18:20:18.960Z,53.37
2023-02-03T18:22:45.531Z,53.18
2023-02-03T18:25:11.985Z,52.99
2023-02-03T18:27:38.568Z,53.46
2023-02-03T18:30:05.148Z,53.38
2023-02-03T18:32:31.730Z,53.17
2023-02-03T18:35:00.374Z,53.52
2023-02-03T18:37:34.495Z,53.34
2023-02-03T18:40:00.967Z,53.36
2023-02-03T18:42:27.532Z,53.93
2023-02-03T18:44:54.912Z,54.21
2023-02-03T18:47:21.361Z,54.72
2023-02-03T18:49:47.916Z,54.67
2023-02-03T18:52:19.771Z,54.86
2023-02-03T18:54:46.229Z,55.75
2023-02-03T18:57:12.638Z,55.80
2023-02-03T18:59:39.190Z,56.04
2023-02-03T19:02:05.609Z,55.76
2023-02-03T19:04:32.089Z,55.81
2023-02-03T19:06:58.685Z,55.36
2023-02-03T19:09:25.136Z,55.41
2023-02-03T19:11:55.280Z,54.77
2023-02-03T19:14:24.986Z,55.05
2023-02-03T19:16:51.413Z,54.70
2023-02-03T19:19:17.862Z,54.88
2023-02-03T19:21:44.356Z,54.79
2023-02-03T19:24:10.835Z,55.13
2023-02-03T19:29:23.313Z,54.83
2023-02-03T19:31:49.914Z,54.83
2023-02-03T19:34:16.409Z,55.15
2023-02-03T19:36:42.921Z,54.37
2023-02-03T19:39:09.346Z,54.50
2023-02-03T19:41:35.794Z,54.35
2023-02-03T19:44:02.224Z,54.69
2023-02-03T19:46:28.762Z,54.49
2023-02-03T19:48:56.325Z,53.95
2023-02-03T19:51:22.784Z,54.06
2023-02-03T19:53:49.274Z,53.65
2023-02-03T19:56:15.718Z,53.57
2023-02-03T19:58:42.177Z,52.99
2023-02-03T20:01:08.665Z,53.43
2023-02-03T20:03:35.133Z,53.18
2023-02-03T20:06:01.650Z,53.54
2023-02-03T20:08:28.148Z,54.07
2023-02-03T20:10:54.705Z,54.22
2023-02-03T20:13:21.162Z,54.74
2023-02-03T20:15:47.813Z,54.56
2023-02-03T20:18:14.495Z,53.67
2023-02-03T20:20:40.970Z,53.28
2023-02-03T20:23:08.730Z,53.60
2023-02-03T20:25:35.228Z,53.06
2023-02-03T20:28:01.784Z,53.07
2023-02-03T20:30:28.609Z,52.94
2023-02-03T20:32:55.757Z,53.50
2023-02-03T20:35:22.271Z,53.18
2023-02-03T20:37:51.005Z,52.80
2023-02-03T20:40:17.523Z,52.73
2023-02-03T20:42:44.988Z,53.31
2023-02-03T20:45:11.438Z,53.28
2023-02-03T20:47:38.047Z,53.68
2023-02-03T20:50:05.845Z,53.55
2023-02-03T20:52:32.259Z,52.68
2023-02-03T20:54:58.728Z,52.66
2023-02-03T20:57:25.218Z,52.72
2023-02-03T20:59:51.722Z,53.16
2023-02-03T21:02:18.293Z,53.11
2023-02-03T21:04:44.906Z,52.71
2023-02-03T21:07:15.995Z,53.00
2023-02-03T21:09:42.738Z,53.45
2023-02-03T21:12:09.268Z,53.57
2023-02-03T21:14:35.896Z,53.62
2023-02-03T21:17:04.671Z,54.06
2023-02-03T21:19:31.219Z,54.70
2023-02-03T21:21:57.670Z,54.78
2023-02-03T21:24:24.144Z,55.08
2023-02-03T21:26:50.677Z,54.24
2023-02-03T21:29:18.518Z,54.59
2023-02-03T21:31:45.043Z,53.99
2023-02-03T21:34:11.670Z,53.92
2023-02-03T21:36:39.308Z,54.37
2023-02-03T21:39:07.065Z,54.80
2023-02-03T21:41:33.551Z,54.95
2023-02-03T21:44:00.045Z,55.51
2023-02-03T21:46:28.578Z,55.13
2023-02-03T21:48:54.994Z,55.45
2023-02-03T21:51:21.478Z,55.05
2023-02-03T21:53:47.906Z,56.72
2023-02-03T21:56:14.355Z,56.50
2023-02-03T21:58:40.802Z,55.22
2023-02-03T22:01:07.418Z,54.60
2023-02-03T22:03:34.006Z,54.26
2023-02-03T22:06:00.445Z,54.45
2023-02-03T22:08:29.673Z,54.19
2023-02-03T22:10:56.108Z,55.80
2023-02-03T22:13:22.545Z,55.91
2023-02-03T22:15:49.309Z,55.60
2023-02-03T22:18:15.908Z,54.33
2023-02-03T22:20:42.440Z,54.06
2023-02-03T22:23:08.908Z,54.05
2023-02-03T22:25:35.295Z,53.45
2023-02-03T22:28:02.755Z,53.14
2023-02-03T22:30:31.157Z,53.02
2023-02-03T22:33:00.336Z,52.45
2023-02-03T22:35:27.106Z,52.74
2023-02-03T22:37:56.957Z,55.07
2023-02-03T22:40:33.511Z,55.52
2023-02-03T22:43:06.524Z,55.82
2023-02-03T22:45:55.640Z,55.90
2023-02-03T22:48:19.996Z,56.14
2023-02-03T22:50:46.504Z,56.02
2023-02-03T22:53:17.346Z,55.67
2023-02-03T22:55:43.798Z,55.96
2023-02-03T22:58:10.354Z,56.25
2023-02-03T23:00:36.861Z,55.93
2023-02-03T23:03:03.405Z,56.18
2023-02-03T23:05:29.994Z,57.01
2023-02-03T23:07:56.571Z,57.23
2023-02-03T23:10:23.202Z,57.09
2023-02-03T23:12:49.712Z,57.57
2023-02-03T23:15:18.216Z,57.32
2023-02-03T23:17:44.651Z,57.88
2023-02-03T23:20:11.099Z,57.84
2023-02-03T23:22:37.618Z,58.34
2023-02-03T23:25:04.120Z,58.78
2023-02-03T23:27:30.590Z,58.76
2023-02-03T23:29:57.194Z,58.50
2023-02-03T23:32:23.793Z,58.08
2023-02-03T23:34:50.275Z,58.56
2023-02-03T23:37:16.702Z,58.00
2023-02-03T23:39:43.117Z,58.49
2023-02-03T23:42:09.651Z,57.91
2023-02-03T23:44:36.135Z,57.30
2023-02-03T23:47:02.565Z,57.19
2023-02-03T23:49:29.097Z,56.86
2023-02-03T23:51:55.557Z,56.15
2023-02-03T23:54:22.090Z,55.57
2023-02-03T23:56:48.514Z,56.17
2023-02-03T23:59:14.948Z,56.09
